createdAt,value
2023-04-01T00:01:17.996Z,98817.66
2023-04-01T00:02:50.237Z,98824.59
2023-04-01T00:04:22.545Z,98822.91
2023-04-01T00:05:58.493Z,98822.03
2023-04-01T00:07:31.040Z,98819.50
2023-04-01T00:09:03.165Z,98818.63
2023-04-01T00:10:37.994Z,98822.91
2023-04-01T00:12:10.114Z,98816.09
2023-04-01T00:13:42.846Z,98816.91
2023-04-01T00:15:14.975Z,98817.81
2023-04-01T00:16:47.161Z,98810.97
2023-04-01T00:18:19.535Z,98810.00
2023-04-01T00:19:51.725Z,98818.63
2023-04-01T00:21:24.232Z,98813.38
2023-04-01T00:22:56.769Z,98821.03
2023-04-01T00:24:28.979Z,98815.81
2023-04-01T00:26:04.741Z,98807.97
2023-04-01T00:27:36.828Z,98801.09
2023-04-01T00:29:09.330Z,98795.94
2023-04-01T00:30:42.009Z,98801.03
2023-04-01T00:32:14.195Z,98804.38
2023-04-01T00:33:46.257Z,98796.59
2023-04-01T00:35:18.414Z,98804.19
2023-04-01T00:36:51.439Z,98807.66
2023-04-01T00:38:24.163Z,98799.00
2023-04-01T00:39:56.608Z,98798.88
2023-04-01T00:41:29.577Z,98807.53
2023-04-01T00:43:01.835Z,98805.06
2023-04-01T00:44:35.839Z,98798.19
2023-04-01T00:46:08.026Z,98799.13
2023-04-01T00:47:40.224Z,98786.28
2023-04-01T00:49:12.424Z,98795.75
2023-04-01T00:50:49.337Z,98788.78
2023-04-01T00:52:24.738Z,98789.50
2023-04-01T00:53:58.186Z,98788.63
2023-04-01T00:55:31.031Z,98795.31
2023-04-01T00:57:06.914Z,98786.03
2023-04-01T00:58:42.907Z,98785.13
2023-04-01T01:00:16.813Z,98788.63
2023-04-01T01:01:48.992Z,98781.81
2023-04-01T01:03:21.278Z,98766.31
2023-04-01T01:04:53.726Z,98774.88
2023-04-01T01:06:33.142Z,98771.28
2023-04-01T01:08:19.759Z,98764.28
2023-04-01T01:10:05.308Z,98776.22
2023-04-01T01:11:59.218Z,98771.00
2023-04-01T01:13:38.108Z,98770.06
2023-04-01T01:15:42.282Z,98761.44
2023-04-01T01:17:21.889Z,98758.78
2023-04-01T01:19:23.880Z,98760.50
2023-04-01T01:21:33.980Z,98754.50
2023-04-01T01:23:10.837Z,98758.16
2023-04-01T01:24:45.911Z,98752.94
2023-04-01T01:26:22.438Z,98756.53
2023-04-01T01:28:14.036Z,98747.06
2023-04-01T01:29:51.988Z,98749.78
2023-04-01T01:31:50.375Z,98749.69
2023-04-01T01:33:57.912Z,98741.03
2023-04-01T01:35:36.327Z,98746.97
2023-04-01T01:37:15.441Z,98735.66
2023-04-01T01:38:47.998Z,98734.03
2023-04-01T01:40:22.547Z,98734.75
2023-04-01T01:41:55.754Z,98729.53
2023-04-01T01:43:32.345Z,98730.34
2023-04-01T01:45:05.853Z,98731.13
2023-04-01T01:46:37.771Z,98730.16
2023-04-01T01:48:10.895Z,98730.19
2023-04-01T01:49:43.844Z,98729.31
2023-04-01T01:51:16.328Z,98719.06
2023-04-01T01:52:48.532Z,98719.94
2023-04-01T01:54:21.025Z,98720.75
2023-04-01T01:55:53.514Z,98722.50
2023-04-01T01:57:29.410Z,98722.31
2023-04-01T01:59:07.003Z,98716.28
2023-04-01T02:00:39.513Z,98714.59
2023-04-01T02:02:12.423Z,98714.59
2023-04-01T02:03:46.980Z,98721.41
2023-04-01T02:05:22.988Z,98717.00
2023-04-01T02:06:59.865Z,98716.88
2023-04-01T02:08:42.863Z,98713.31
2023-04-01T02:10:15.478Z,98709.19
2023-04-01T02:11:51.728Z,98714.25
2023-04-01T02:13:32.847Z,98709.84
2023-04-01T02:15:09.599Z,98706.28
2023-04-01T02:16:44.875Z,98708.06
2023-04-01T02:18:18.128Z,98699.31
2023-04-01T02:20:02.824Z,98693.19
2023-04-01T02:21:35.805Z,98697.53
2023-04-01T02:23:09.371Z,98693.06
2023-04-01T02:24:42.210Z,98690.41
2023-04-01T02:26:14.590Z,98691.09
2023-04-01T02:27:47.349Z,98682.44
2023-04-01T02:29:27.043Z,98674.66
2023-04-01T02:31:01.941Z,98674.66
2023-04-01T02:32:35.924Z,98674.72
2023-04-01T02:34:10.478Z,98674.72
2023-04-01T02:35:42.773Z,98666.22
2023-04-01T02:37:15.550Z,98670.41
2023-04-01T02:38:48.405Z,98668.69
2023-04-01T02:40:20.777Z,98663.63
2023-04-01T02:41:53.180Z,98673.25
2023-04-01T02:43:25.473Z,98663.13
2023-04-01T02:44:57.617Z,98675.09
2023-04-01T02:46:29.748Z,98662.22
2023-04-01T02:49:33.675Z,98655.22
2023-04-01T02:51:05.884Z,98660.22
2023-04-01T02:52:38.492Z,98663.44
2023-04-01T02:54:10.741Z,98661.59
2023-04-01T02:55:43.115Z,98654.69
2023-04-01T02:57:15.268Z,98658.75
2023-04-01T02:58:47.827Z,98659.44
2023-04-01T03:00:20.148Z,98662.03
2023-04-01T03:01:52.389Z,98654.22
2023-04-01T03:03:24.537Z,98648.03
2023-04-01T03:04:56.655Z,98656.63
2023-04-01T03:06:28.782Z,98643.88
2023-04-01T03:08:01.073Z,98655.09
2023-04-01T03:09:33.173Z,98651.69
2023-04-01T03:11:05.995Z,98655.09
2023-04-01T03:12:38.405Z,98649.09
2023-04-01T03:14:10.589Z,98655.06
2023-04-01T03:15:42.775Z,98649.84
2023-04-01T03:17:14.969Z,98656.69
2023-04-01T03:18:47.276Z,98658.38
2023-04-01T03:20:19.411Z,98661.75
2023-04-01T03:21:51.513Z,98660.72
2023-04-01T03:23:25.594Z,98657.34
2023-04-01T03:24:57.690Z,98657.25
2023-04-01T03:26:29.943Z,98656.34
2023-04-01T03:28:02.531Z,98655.38
2023-04-01T03:29:34.656Z,98653.56
2023-04-01T03:31:06.928Z,98658.53
2023-04-01T03:32:39.186Z,98664.50
2023-04-01T03:34:11.424Z,98660.94
2023-04-01T03:35:43.614Z,98661.69
2023-04-01T03:37:16.011Z,98657.41
2023-04-01T03:38:48.253Z,98652.22
2023-04-01T03:40:21.068Z,98656.53
2023-04-01T03:41:53.166Z,98659.94
2023-04-01T03:43:25.244Z,98664.28
2023-04-01T03:44:57.410Z,98659.03
2023-04-01T03:46:29.689Z,98652.13
2023-04-01T03:48:01.785Z,98662.34
2023-04-01T03:49:34.798Z,98663.09
2023-04-01T03:51:10.066Z,98661.19
2023-04-01T03:52:42.254Z,98654.31
2023-04-01T03:54:14.382Z,98656.50
2023-04-01T03:55:46.657Z,98663.47
2023-04-01T03:57:18.809Z,98667.09
2023-04-01T03:58:51.093Z,98661.84
2023-04-01T04:00:23.360Z,98663.22
2023-04-01T04:01:55.685Z,98664.63
2023-04-01T04:03:28.428Z,98673.09
2023-04-01T04:05:00.735Z,98677.38
2023-04-01T04:06:33.865Z,98668.97
2023-04-01T04:08:06.166Z,98677.19
2023-04-01T04:09:38.308Z,98669.44
2023-04-01T04:11:10.750Z,98679.00
2023-04-01T04:12:42.899Z,98665.66
2023-04-01T04:14:15.000Z,98670.84
2023-04-01T04:15:47.107Z,98672.56
2023-04-01T04:17:19.219Z,98678.09
2023-04-01T04:18:52.507Z,98684.63
2023-04-01T04:20:24.615Z,98679.69
2023-04-01T04:21:56.674Z,98680.50
2023-04-01T04:23:31.110Z,98678.41
2023-04-01T04:25:03.336Z,98684.81
2023-04-01T04:26:35.647Z,98688.69
2023-04-01T04:28:07.764Z,98691.66
2023-04-01T04:29:40.141Z,98690.38
2023-04-01T04:31:12.585Z,98687.78
2023-04-01T04:32:44.805Z,98687.72
2023-04-01T04:34:16.960Z,98687.03
2023-04-01T04:35:49.547Z,98693.94
2023-04-01T04:37:21.715Z,98689.63
2023-04-01T04:38:53.861Z,98695.78
2023-04-01T04:40:26.060Z,98696.75
2023-04-01T04:41:58.175Z,98701.06
2023-04-01T04:43:30.387Z,98698.72
2023-04-01T04:45:02.490Z,98699.56
2023-04-01T04:46:34.859Z,98702.22
2023-04-01T04:48:19.833Z,98692.91
2023-04-01T04:49:52.392Z,98694.16
2023-04-01T04:51:25.868Z,98699.69
2023-04-01T04:52:57.973Z,98698.31
2023-04-01T04:54:30.870Z,98688.22
2023-04-01T04:56:03.069Z,98693.75
2023-04-01T04:57:35.211Z,98693.34
2023-04-01T04:59:08.015Z,98684.22
2023-04-01T05:00:40.249Z,98688.00
2023-04-01T05:02:13.003Z,98684.84
2023-04-01T05:03:45.918Z,98677.44
2023-04-01T05:05:18.316Z,98673.47
2023-04-01T05:06:50.797Z,98659.78
2023-04-01T05:08:22.905Z,98673.00
2023-04-01T05:09:55.072Z,98666.25
2023-04-01T05:11:27.741Z,98657.97
2023-04-01T05:13:00.308Z,98658.97
2023-04-01T05:14:32.477Z,98649.88
2023-04-01T05:16:05.005Z,98648.34
2023-04-01T05:17:37.175Z,98650.78
2023-04-01T05:19:09.441Z,98643.59
2023-04-01T05:20:47.965Z,98639.38
2023-04-01T05:22:20.153Z,98632.72
2023-04-01T05:23:52.273Z,98629.34
2023-04-01T05:25:24.512Z,98640.03
2023-04-01T05:26:57.508Z,98639.44
2023-04-01T05:28:29.653Z,98637.81
2023-04-01T05:30:01.786Z,98629.09
2023-04-01T05:31:33.938Z,98624.19
2023-04-01T05:33:09.235Z,98614.03
2023-04-01T05:34:41.367Z,98609.88
2023-04-01T05:36:18.527Z,98610.72
2023-04-01T05:37:50.771Z,98603.09
2023-04-01T05:39:22.991Z,98592.75
2023-04-01T05:41:01.094Z,98593.59
2023-04-01T05:42:33.522Z,98597.34
2023-04-01T05:44:06.730Z,98598.03
2023-04-01T05:47:10.831Z,98589.69
2023-04-01T05:48:43.005Z,98580.22
2023-04-01T05:50:15.199Z,98574.25
2023-04-01T05:51:47.351Z,98577.75
2023-04-01T05:53:19.646Z,98565.00
2023-04-01T05:54:51.877Z,98575.31
2023-04-01T05:56:24.103Z,98578.81
2023-04-01T05:57:56.356Z,98577.03
2023-04-01T05:59:28.576Z,98571.78
2023-04-01T06:01:10.099Z,98578.53
2023-04-01T06:02:45.112Z,98564.81
2023-04-01T06:04:19.044Z,98551.66
2023-04-01T06:05:51.569Z,98556.06
2023-04-01T06:07:23.777Z,98555.06
2023-04-01T06:08:58.113Z,98555.00
2023-04-01T06:11:01.081Z,98554.72
2023-04-01T06:12:44.656Z,98555.47
2023-04-01T06:14:32.840Z,98559.69
2023-04-01T06:16:33.149Z,98557.78
2023-04-01T06:18:36.265Z,98548.22
2023-04-01T06:20:40.915Z,98553.34
2023-04-01T06:22:22.157Z,98559.63
2023-04-01T06:24:33.284Z,98561.91
2023-04-01T06:26:23.316Z,98548.22
2023-04-01T06:28:23.558Z,98549.13
2023-04-01T06:30:21.268Z,98532.88
2023-04-01T06:32:24.123Z,98544.84
2023-04-01T06:34:03.108Z,98548.28
2023-04-01T06:35:54.212Z,98553.78
2023-04-01T06:38:07.218Z,98546.00
2023-04-01T06:39:48.072Z,98555.31
2023-04-01T06:41:26.611Z,98555.25
2023-04-01T06:43:11.391Z,98544.78
2023-04-01T06:44:53.214Z,98550.00
2023-04-01T06:46:46.916Z,98541.25
2023-04-01T06:48:37.361Z,98535.22
2023-04-01T06:50:30.101Z,98525.59
2023-04-01T06:52:24.943Z,98526.38
2023-04-01T06:54:02.286Z,98512.22
2023-04-01T06:55:39.171Z,98529.03
2023-04-01T06:57:34.612Z,98533.84
2023-04-01T06:59:19.559Z,98530.41
2023-04-01T07:01:14.325Z,98535.38
2023-04-01T07:02:59.558Z,98541.34
2023-04-01T07:04:33.963Z,98533.63
2023-04-01T07:06:09.796Z,98535.44
2023-04-01T07:07:47.942Z,98540.44
2023-04-01T07:09:23.512Z,98544.72
2023-04-01T07:11:03.505Z,98543.72
2023-04-01T07:12:44.935Z,98545.22
2023-04-01T07:14:27.913Z,98548.53
2023-04-01T07:16:05.758Z,98539.91
2023-04-01T07:17:38.373Z,98535.59
2023-04-01T07:19:16.575Z,98530.25
2023-04-01T07:20:49.522Z,98530.25
2023-04-01T07:22:31.848Z,98529.25
2023-04-01T07:24:12.151Z,98534.38
2023-04-01T07:25:49.784Z,98541.19
2023-04-01T07:27:21.928Z,98537.75
2023-04-01T07:30:31.896Z,98528.19
2023-04-01T07:32:18.833Z,98533.91
2023-04-01T07:34:15.510Z,98531.06
2023-04-01T07:36:03.320Z,98532.75
2023-04-01T07:38:10.865Z,98521.25
2023-04-01T07:40:26.394Z,98518.66
2023-04-01T07:42:29.001Z,98508.09
2023-04-01T07:44:06.619Z,98508.09
2023-04-01T07:45:52.801Z,98510.44
2023-04-01T07:47:41.487Z,98508.59
2023-04-01T07:49:58.437Z,98513.47
2023-04-01T07:51:37.779Z,98517.63
2023-04-01T07:53:41.861Z,98511.34
2023-04-01T07:55:26.077Z,98519.06
2023-04-01T07:57:07.553Z,98519.25
2023-04-01T07:59:04.448Z,98524.97
2023-04-01T08:00:42.322Z,98512.03
2023-04-01T08:02:43.673Z,98501.53
2023-04-01T08:04:24.892Z,98511.88
2023-04-01T08:06:36.032Z,98503.13
2023-04-01T08:08:27.581Z,98516.06
2023-04-01T08:10:14.126Z,98510.09
2023-04-01T08:11:59.871Z,98509.94
2023-04-01T08:13:59.296Z,98508.91
2023-04-01T08:15:52.365Z,98519.31
2023-04-01T08:17:31.036Z,98517.59
2023-04-01T08:19:32.573Z,98528.66
2023-04-01T08:21:09.186Z,98527.81
2023-04-01T08:22:48.182Z,98529.41
2023-04-01T08:24:47.172Z,98531.03
2023-04-01T08:26:41.302Z,98530.84
2023-04-01T08:28:23.476Z,98525.66
2023-04-01T08:30:04.742Z,98516.41
2023-04-01T08:31:54.615Z,98511.78
2023-04-01T08:33:29.364Z,98517.69
2023-04-01T08:35:37.651Z,98523.31
2023-04-01T08:37:18.969Z,98515.91
2023-04-01T08:38:58.065Z,98503.63
2023-04-01T08:41:01.691Z,98504.38
2023-04-01T08:42:34.469Z,98502.72
2023-04-01T08:44:25.207Z,98492.97
2023-04-01T08:46:42.441Z,98491.44
2023-04-01T08:48:34.377Z,98485.13
2023-04-01T08:50:26.802Z,98479.09
2023-04-01T08:52:01.778Z,98473.31
2023-04-01T08:53:58.213Z,98482.28
2023-04-01T08:55:42.667Z,98475.47
2023-04-01T08:57:31.016Z,98476.88
2023-04-01T08:59:47.295Z,98474.09
2023-04-01T09:01:54.836Z,98475.50
2023-04-01T09:03:45.521Z,98468.28
2023-04-01T09:05:45.684Z,98468.84
2023-04-01T09:07:26.756Z,98458.25
2023-04-01T09:09:27.143Z,98454.34
2023-04-01T09:11:13.358Z,98457.16
2023-04-01T09:12:45.391Z,98456.25
2023-04-01T09:14:36.381Z,98455.56
2023-04-01T09:17:00.857Z,98453.50
2023-04-01T09:18:51.210Z,98445.41
2023-04-01T09:20:34.624Z,98440.75
2023-04-01T09:22:12.469Z,98447.53
2023-04-01T09:24:11.870Z,98440.84
2023-04-01T09:25:55.382Z,98436.94
2023-04-01T09:27:30.084Z,98438.44
2023-04-01T09:29:19.640Z,98434.50
2023-04-01T09:31:18.679Z,98434.97
2023-04-01T09:33:15.489Z,98430.31
2023-04-01T09:35:24.988Z,98438.50
2023-04-01T09:37:19.396Z,98429.34
2023-04-01T09:39:12.004Z,98434.09
2023-04-01T09:41:09.240Z,98423.13
2023-04-01T09:43:02.951Z,98428.91
2023-04-01T09:45:02.031Z,98420.59
2023-04-01T09:46:34.180Z,98416.13
2023-04-01T09:48:09.436Z,98417.41
2023-04-01T09:50:07.083Z,98417.94
2023-04-01T09:51:53.342Z,98411.69
2023-04-01T09:53:50.278Z,98410.25
2023-04-01T09:55:31.265Z,98413.59
2023-04-01T09:57:09.392Z,98408.28
2023-04-01T09:58:53.531Z,98410.09
2023-04-01T10:00:44.616Z,98412.41
2023-04-01T10:02:44.360Z,98409.38
2023-04-01T10:04:53.824Z,98408.56
2023-04-01T10:06:57.977Z,98409.00
2023-04-01T10:08:53.818Z,98400.41
2023-04-01T10:10:31.701Z,98396.97
2023-04-01T10:12:03.839Z,98402.28
2023-04-01T10:14:13.418Z,98394.63
2023-04-01T10:16:09.164Z,98404.69
2023-04-01T10:18:21.441Z,98395.91
2023-04-01T10:20:15.214Z,98396.63
2023-04-01T10:23:56.039Z,98392.03
2023-04-01T10:25:46.926Z,98376.31
2023-04-01T10:27:56.688Z,98379.72
2023-04-01T10:29:33.300Z,98372.78
2023-04-01T10:31:21.726Z,98369.97
2023-04-01T10:33:17.234Z,98367.13
2023-04-01T10:35:04.146Z,98363.91
2023-04-01T10:36:48.479Z,98360.34
2023-04-01T10:38:44.835Z,98351.63
2023-04-01T10:40:47.795Z,98352.31
2023-04-01T10:42:30.326Z,98356.31
2023-04-01T10:44:39.823Z,98353.31
2023-04-01T10:46:29.872Z,98342.22
2023-04-01T10:48:26.461Z,98340.66
2023-04-01T10:50:04.437Z,98341.81
2023-04-01T10:52:23.269Z,98351.13
2023-04-01T10:54:32.879Z,98349.19
2023-04-01T10:56:25.167Z,98345.13
2023-04-01T10:58:43.370Z,98345.28
2023-04-01T11:00:27.273Z,98339.78
2023-04-01T11:02:24.104Z,98339.31
2023-04-01T11:04:33.803Z,98332.75
2023-04-01T11:06:29.643Z,98329.94
2023-04-01T11:08:33.084Z,98331.75
2023-04-01T11:10:42.813Z,98337.50
2023-04-01T11:12:45.693Z,98341.28
2023-04-01T11:14:36.403Z,98337.19
2023-04-01T11:16:45.901Z,98337.41
2023-04-01T11:19:03.162Z,98345.25
2023-04-01T11:20:56.299Z,98338.00
2023-04-01T11:22:31.272Z,98335.00
2023-04-01T11:24:32.978Z,98338.75
2023-04-01T11:26:16.903Z,98331.53
2023-04-01T11:28:06.977Z,98329.22
2023-04-01T11:30:09.586Z,98330.25
2023-04-01T11:31:59.808Z,98327.53
2023-04-01T11:33:52.497Z,98320.75
2023-04-01T11:35:27.654Z,98317.41
2023-04-01T11:37:21.478Z,98320.16
2023-04-01T11:39:02.682Z,98325.78
2023-04-01T11:41:00.706Z,98318.56
2023-04-01T11:42:53.175Z,98314.78
2023-04-01T11:44:28.681Z,98310.84
2023-04-01T11:46:16.683Z,98308.09
2023-04-01T11:47:58.560Z,98296.28
2023-04-01T11:49:49.261Z,98297.75
2023-04-01T11:51:46.072Z,98304.13
2023-04-01T11:53:33.183Z,98296.81
2023-04-01T11:55:29.466Z,98295.69
2023-04-01T11:57:39.159Z,98294.72
2023-04-01T11:59:31.569Z,98288.13
2023-04-01T12:01:03.805Z,98301.75
2023-04-01T12:02:50.527Z,98307.94
2023-04-01T12:04:37.223Z,98307.50
2023-04-01T12:06:27.981Z,98307.53
2023-04-01T12:08:15.285Z,98312.44
2023-04-01T12:10:26.314Z,98321.25
2023-04-01T12:12:33.873Z,98332.63
2023-04-01T12:14:20.707Z,98330.84
2023-04-01T12:16:24.397Z,98346.66
2023-04-01T12:18:19.450Z,98352.47
2023-04-01T12:20:12.762Z,98357.94
2023-04-01T12:21:54.218Z,98360.31
2023-04-01T12:23:48.864Z,98376.75
2023-04-01T12:25:39.425Z,98372.47
2023-04-01T12:27:30.494Z,98377.38
2023-04-01T12:29:09.214Z,98376.06
2023-04-01T12:30:51.970Z,98379.81
2023-04-01T12:32:36.841Z,98386.31
2023-04-01T12:34:46.894Z,98387.56
2023-04-01T12:36:49.947Z,98392.56
2023-04-01T12:38:49.536Z,98393.41
2023-04-01T12:40:38.891Z,98407.41
2023-04-01T12:42:33.025Z,98422.25
2023-04-01T12:44:08.374Z,98420.75
2023-04-01T12:46:18.392Z,98438.09
2023-04-01T12:48:05.672Z,98446.06
2023-04-01T12:49:49.559Z,98454.16
2023-04-01T12:51:41.937Z,98465.44
2023-04-01T12:53:44.922Z,98477.13
2023-04-01T12:55:28.793Z,98483.75
2023-04-01T12:57:07.633Z,98491.97
2023-04-01T12:59:04.116Z,98504.22
2023-04-01T13:01:11.777Z,98513.53
2023-04-01T13:03:20.510Z,98521.16
2023-04-01T13:05:07.497Z,98532.38
2023-04-01T13:06:45.449Z,98539.44
2023-04-01T13:09:18.277Z,98552.59
2023-04-01T13:11:19.040Z,98562.19
2023-04-01T13:14:57.899Z,98610.69
2023-04-01T13:18:37.844Z,98589.03
2023-04-01T13:20:22.432Z,98554.19
2023-04-01T13:22:08.846Z,98520.22
2023-04-01T13:24:08.031Z,98495.50
2023-04-01T13:26:07.050Z,98514.72
2023-04-01T13:27:46.493Z,98511.63
2023-04-01T13:29:23.752Z,98528.06
2023-04-01T13:31:20.710Z,98526.22
2023-04-01T13:33:42.394Z,98533.09
2023-04-01T13:35:23.789Z,98536.69
2023-04-01T13:37:20.116Z,98535.78
2023-04-01T13:38:56.915Z,98536.13
2023-04-01T13:41:02.290Z,98528.91
2023-04-01T13:42:39.832Z,98534.94
2023-04-01T13:44:16.180Z,98528.81
2023-04-01T13:46:19.887Z,98531.25
2023-04-01T13:48:05.931Z,98511.44
2023-04-01T13:50:03.150Z,98499.88
2023-04-01T13:53:34.029Z,98492.66
2023-04-01T13:55:21.382Z,98481.31
2023-04-01T14:00:55.170Z,98464.69
2023-04-01T14:03:05.104Z,98457.44
2023-04-01T14:04:51.671Z,98451.25
2023-04-01T14:06:55.092Z,98452.84
2023-04-01T14:09:01.229Z,98454.50
2023-04-01T14:10:51.505Z,98446.69
2023-04-01T14:12:33.489Z,98436.47
2023-04-01T14:14:17.544Z,98435.63
2023-04-01T14:15:58.852Z,98434.97
2023-04-01T14:17:57.874Z,98422.03
2023-04-01T14:19:47.907Z,98426.22
2023-04-01T14:21:53.886Z,98415.72
2023-04-01T14:23:33.541Z,98413.06
2023-04-01T14:25:43.240Z,98402.38
2023-04-01T14:27:21.074Z,98388.28
2023-04-01T14:29:27.101Z,98378.59
2023-04-01T14:31:18.445Z,98377.97
2023-04-01T14:33:09.642Z,98384.97
2023-04-01T14:34:51.495Z,98390.59
2023-04-01T14:37:01.048Z,98388.78
2023-04-01T14:39:24.505Z,98364.69
2023-04-01T14:41:17.470Z,98369.63
2023-04-01T14:43:07.745Z,98366.34
2023-04-01T14:44:47.498Z,98360.31
2023-04-01T14:46:48.097Z,98354.53
2023-04-01T14:48:38.056Z,98339.38
2023-04-01T14:50:22.207Z,98324.69
2023-04-01T14:51:54.907Z,98323.66
2023-04-01T14:53:29.100Z,98322.81
2023-04-01T15:26:44.862Z,98317.78
2023-04-01T15:28:55.731Z,98318.91
2023-04-01T15:31:05.188Z,98314.50
2023-04-01T15:32:59.138Z,98311.00
2023-04-01T15:34:42.184Z,98305.03
2023-04-01T15:36:52.847Z,98309.59
2023-04-01T15:38:52.626Z,98312.09
2023-04-01T15:40:30.112Z,98315.47
2023-04-01T15:42:20.464Z,98313.34
2023-04-01T15:43:55.422Z,98305.78
2023-04-01T15:45:36.526Z,98296.25
2023-04-01T15:47:26.049Z,98304.81
2023-04-01T15:49:11.045Z,98305.94
2023-04-01T15:50:51.488Z,98304.66
2023-04-01T15:52:23.789Z,98302.78
2023-04-01T15:54:28.065Z,98304.66
2023-04-01T15:56:29.937Z,98309.41
2023-04-01T15:58:04.737Z,98298.88
2023-04-01T15:59:52.639Z,98314.69
2023-04-01T16:02:02.033Z,98316.66
2023-04-01T16:03:57.305Z,98321.28
2023-04-01T16:05:35.427Z,98319.13
2023-04-01T16:07:12.602Z,98323.03
2023-04-01T16:09:04.300Z,98321.53
2023-04-01T16:11:11.694Z,98324.41
2023-04-01T16:13:01.500Z,98327.28
2023-04-01T16:14:45.953Z,98330.22
2023-04-01T16:16:36.896Z,98337.94
2023-04-01T16:18:12.074Z,98344.59
2023-04-01T16:19:54.734Z,98345.78
2023-04-01T16:23:30.853Z,98368.03
2023-04-01T16:25:39.894Z,98367.09
2023-04-01T16:27:21.051Z,98379.69
2023-04-01T16:28:56.606Z,98409.03
2023-04-01T16:30:37.691Z,98461.69
2023-04-01T16:32:30.032Z,98546.13
2023-04-01T16:34:44.285Z,98536.63
2023-04-01T16:36:37.929Z,98547.38
2023-04-01T16:38:18.744Z,98549.81
2023-04-01T16:40:21.797Z,98536.25
2023-04-01T16:42:10.510Z,98531.19
2023-04-01T16:43:47.730Z,98536.81
2023-04-01T16:45:35.289Z,98538.81
2023-04-01T16:47:12.092Z,98542.69
2023-04-01T16:49:02.241Z,98542.97
2023-04-01T16:51:11.341Z,98564.06
2023-04-01T16:53:03.515Z,98574.03
2023-04-01T16:54:50.296Z,98575.09
2023-04-01T16:56:27.134Z,98575.28
2023-04-01T16:58:01.452Z,98573.66
2023-04-01T17:00:06.594Z,98576.97
2023-04-01T17:01:58.858Z,98574.31
2023-04-01T17:05:17.095Z,98573.66
2023-04-01T17:06:56.452Z,98570.19
2023-04-01T17:08:40.854Z,98560.97
2023-04-01T17:10:24.258Z,98550.66
2023-04-01T17:12:05.838Z,98554.16
2023-04-01T17:14:08.212Z,98551.69
2023-04-01T17:15:56.021Z,98550.91
2023-04-01T17:17:41.758Z,98533.69
2023-04-01T17:19:29.944Z,98533.81
2023-04-01T17:21:04.027Z,98543.50
2023-04-01T17:22:46.278Z,98553.72
2023-04-01T17:24:44.221Z,98551.06
2023-04-01T17:26:31.044Z,98540.03
2023-04-01T17:28:16.893Z,98540.97
2023-04-01T17:30:01.420Z,98525.47
2023-04-01T17:31:45.899Z,98518.66
2023-04-01T17:33:37.996Z,98523.22
2023-04-01T17:35:13.204Z,98540.72
2023-04-01T17:36:52.697Z,98562.25
2023-04-01T17:40:13.867Z,98570.94
2023-04-01T17:42:01.790Z,98577.78
2023-04-01T17:43:51.444Z,98585.38
2023-04-01T17:45:35.148Z,98588.06
2023-04-01T17:47:27.135Z,98588.88
2023-04-01T17:49:01.926Z,98602.69
2023-04-01T17:50:55.023Z,98601.78
2023-04-01T17:52:44.973Z,98610.47
2023-04-01T17:54:38.880Z,98604.66
2023-04-01T17:56:44.505Z,98624.72
2023-04-01T17:58:28.271Z,98624.91
2023-04-01T18:00:26.310Z,98631.97
2023-04-01T18:02:27.118Z,98633.94
2023-04-01T18:04:30.257Z,98635.00
2023-04-01T18:06:06.600Z,98634.69
2023-04-01T18:07:50.868Z,98640.22
2023-04-01T18:09:47.743Z,98646.38
2023-04-01T18:11:41.247Z,98647.34
2023-04-01T18:13:41.209Z,98640.28
2023-04-01T18:15:16.019Z,98652.56
2023-04-01T18:17:12.968Z,98655.88
2023-04-01T18:18:54.754Z,98663.00
2023-04-01T18:20:48.220Z,98660.66
2023-04-01T18:22:30.145Z,98665.94
2023-04-01T18:24:28.473Z,98671.19
2023-04-01T18:26:10.339Z,98665.34
2023-04-01T18:27:46.345Z,98680.25
2023-04-01T18:29:23.533Z,98672.63
2023-04-01T18:31:11.375Z,98677.03
2023-04-01T18:32:54.905Z,98672.91
2023-04-01T18:35:01.800Z,98672.94
2023-04-01T18:36:53.435Z,98676.53
2023-04-01T18:38:41.884Z,98673.22
2023-04-01T18:40:17.237Z,98669.28
2023-04-01T18:41:59.023Z,98671.25
2023-04-01T18:45:24.819Z,98677.66
2023-04-01T18:47:04.916Z,98673.53
2023-04-01T18:48:58.122Z,98678.72
2023-04-01T18:50:50.162Z,98675.28
2023-04-01T18:52:22.282Z,98677.25
2023-04-01T18:54:07.012Z,98684.13
2023-04-01T18:56:07.542Z,98685.81
2023-04-01T18:57:57.962Z,98684.44
2023-04-01T18:59:38.816Z,98684.00
2023-04-01T19:01:30.377Z,98695.44
2023-04-01T19:03:10.280Z,98700.81
2023-04-01T19:05:09.813Z,98693.81
2023-04-01T19:06:53.374Z,98691.16
2023-04-01T19:08:29.939Z,98696.34
2023-04-01T19:10:13.312Z,98697.38
2023-04-01T19:12:07.877Z,98693.06
2023-04-01T19:13:52.528Z,98691.31
2023-04-01T19:16:02.035Z,98692.09
2023-04-01T19:17:44.364Z,98687.09
2023-04-01T19:19:37.891Z,98689.84
2023-04-01T19:21:20.589Z,98697.84
2023-04-01T19:23:07.733Z,98690.19
2023-04-01T19:24:56.286Z,98704.97
2023-04-01T19:26:30.707Z,98711.03
2023-04-01T19:28:22.655Z,98710.25
2023-04-01T19:30:07.739Z,98707.72
2023-04-01T19:31:52.708Z,98718.88
2023-04-01T19:33:33.763Z,98716.22
2023-04-01T19:35:28.098Z,98716.22
2023-04-01T19:37:04.192Z,98717.88
2023-04-01T19:38:40.693Z,98718.00
2023-04-01T19:40:21.896Z,98721.31
2023-04-01T19:42:09.251Z,98724.84
2023-04-01T19:43:50.996Z,98722.25
2023-04-01T19:45:35.217Z,98726.69
2023-04-01T19:48:50.234Z,98723.25
2023-04-01T19:50:51.980Z,98728.44
2023-04-01T19:52:41.560Z,98720.72
2023-04-01T19:54:22.650Z,98724.22
2023-04-01T19:56:03.864Z,98730.19
2023-04-01T19:57:53.974Z,98724.09
2023-04-01T19:59:44.007Z,98730.22
2023-04-01T20:01:34.732Z,98737.13
2023-04-01T20:03:41.782Z,98741.38
2023-04-01T20:05:36.737Z,98744.78
2023-04-01T20:07:21.593Z,98745.53
2023-04-01T20:09:22.852Z,98759.16
2023-04-01T20:10:58.113Z,98758.19
2023-04-01T20:13:09.183Z,98752.84
2023-04-01T20:14:53.473Z,98762.25
2023-04-01T20:16:50.923Z,98763.84
2023-04-01T20:18:50.141Z,98762.00
2023-04-01T20:20:25.981Z,98768.06
2023-04-01T20:24:11.510Z,98756.75
2023-04-01T20:26:08.104Z,98752.50
2023-04-01T20:27:47.898Z,98755.06
2023-04-01T20:29:39.744Z,98757.81
2023-04-01T20:31:24.353Z,98767.25
2023-04-01T20:33:27.825Z,98769.00
2023-04-01T20:35:45.207Z,98776.59
2023-04-01T20:37:52.555Z,98774.81
2023-04-01T20:40:04.592Z,98778.19
2023-04-01T20:41:50.902Z,98777.34
2023-04-01T20:43:48.096Z,98784.19
2023-04-01T20:45:58.403Z,98788.38
2023-04-01T20:47:54.933Z,98787.50
2023-04-01T20:49:50.427Z,98792.84
2023-04-01T20:51:34.664Z,98796.25
2023-04-01T20:53:22.706Z,98799.78
2023-04-01T20:55:21.512Z,98808.44
2023-04-01T20:57:15.401Z,98808.47
2023-04-01T20:58:59.784Z,98805.09
2023-04-01T21:01:08.481Z,98814.56
2023-04-01T21:02:49.283Z,98807.78
2023-04-01T21:04:39.521Z,98808.59
2023-04-01T21:06:18.467Z,98819.78
2023-04-01T21:08:05.812Z,98817.16
2023-04-01T21:09:46.774Z,98820.56
2023-04-01T21:11:39.981Z,98807.47
2023-04-01T21:13:38.253Z,98810.03
2023-04-01T21:15:24.038Z,98802.19
2023-04-01T21:17:34.553Z,98801.31
2023-04-01T21:19:12.504Z,98789.50
2023-04-01T21:20:48.687Z,98796.44
2023-04-01T21:22:36.011Z,98793.81
2023-04-01T21:24:13.885Z,98798.19
2023-04-01T21:27:21.808Z,98795.63
2023-04-01T21:29:15.416Z,98803.22
2023-04-01T21:31:46.374Z,98810.06
2023-04-01T21:33:37.256Z,98805.00
2023-04-01T21:35:24.289Z,98813.59